createdAt,value
2018-03-18T07:05:46.754Z,80.80
2018-03-18T07:08:17.759Z,80.89
2018-03-18T07:10:48.769Z,80.32
2018-03-18T07:13:19.769Z,80.07
2018-03-18T07:15:50.809Z,79.80
2018-03-18T07:18:21.795Z,79.64
2018-03-18T07:20:52.776Z,79.76
2018-03-18T07:23:23.795Z,79.67
2018-03-18T07:25:54.761Z,79.69
2018-03-18T07:28:25.723Z,79.33
2018-03-18T07:30:56.685Z,78.73
2018-03-18T07:33:27.652Z,78.88
2018-03-18T07:35:58.709Z,78.41
2018-03-18T07:38:29.689Z,78.76
2018-03-18T07:41:00.692Z,78.38
2018-03-18T07:43:31.684Z,78.33
2018-03-18T07:46:02.681Z,78.25
2018-03-18T07:48:33.643Z,77.95
2018-03-18T07:51:04.672Z,77.57
2018-03-18T07:53:35.649Z,77.27
2018-03-18T07:56:06.631Z,77.18
2018-03-18T07:58:37.678Z,77.01
2018-03-18T08:01:08.708Z,76.84
2018-03-18T08:03:39.697Z,77.02
2018-03-18T08:06:10.701Z,77.06
2018-03-18T08:08:41.672Z,76.80
2018-03-18T08:11:12.668Z,76.34
2018-03-18T08:13:43.671Z,76.55
2018-03-18T08:16:14.657Z,76.82
2018-03-18T08:18:45.681Z,76.40
2018-03-18T08:21:16.670Z,76.28
2018-03-18T08:23:47.661Z,76.52
2018-03-18T08:26:18.702Z,76.58
2018-03-18T08:28:49.682Z,76.56
2018-03-18T08:31:20.687Z,75.93
2018-03-18T08:33:51.671Z,75.94
2018-03-18T08:36:22.654Z,75.56
2018-03-18T08:38:53.660Z,75.32
2018-03-18T08:41:24.640Z,75.52
2018-03-18T08:43:55.640Z,74.88
2018-03-18T08:46:26.647Z,74.87
2018-03-18T08:48:57.653Z,75.25
2018-03-18T08:51:28.654Z,74.69
2018-03-18T08:53:59.661Z,74.76
2018-03-18T08:56:30.674Z,74.21
2018-03-18T08:59:01.683Z,73.68
2018-03-18T09:01:32.691Z,73.22
2018-03-18T09:04:03.741Z,73.61
2018-03-18T09:06:34.743Z,73.71
2018-03-18T09:09:05.748Z,74.52
2018-03-18T09:11:36.765Z,74.01
2018-03-18T09:14:07.733Z,73.83
2018-03-18T09:16:38.728Z,73.19
2018-03-18T09:19:09.704Z,73.50
2018-03-18T09:21:40.674Z,74.05
2018-03-18T09:24:11.712Z,73.27
2018-03-18T09:26:42.728Z,72.90
2018-03-18T09:29:13.680Z,72.54
2018-03-18T09:31:44.660Z,73.02
2018-03-18T09:34:15.666Z,72.14
2018-03-18T09:36:46.657Z,72.42
2018-03-18T09:39:17.629Z,72.05
2018-03-18T09:41:48.633Z,73.88
2018-03-18T09:44:19.597Z,73.71
2018-03-18T09:46:50.594Z,73.74
2018-03-18T09:49:21.592Z,74.15
2018-03-18T09:51:52.601Z,73.54
2018-03-18T09:54:30.484Z,73.80
2018-03-18T09:57:01.494Z,74.81
2018-03-18T09:59:32.462Z,74.71
2018-03-18T10:02:03.436Z,74.07
2018-03-18T10:04:34.450Z,74.63
2018-03-18T10:07:05.419Z,73.96
2018-03-18T10:09:36.391Z,74.04
2018-03-18T10:12:07.421Z,73.87
2018-03-18T10:14:38.429Z,73.73
2018-03-18T10:17:09.447Z,72.47
2018-03-18T10:19:40.421Z,73.32
2018-03-18T10:22:11.445Z,72.75
2018-03-18T10:24:42.419Z,72.59
2018-03-18T10:27:13.471Z,72.48
2018-03-18T10:29:44.457Z,72.01
2018-03-18T10:32:15.510Z,72.75
2018-03-18T10:34:46.520Z,72.31
2018-03-18T10:37:17.573Z,71.95
2018-03-18T10:39:48.545Z,71.50
2018-03-18T10:42:19.529Z,70.76
2018-03-18T10:44:50.546Z,71.79
2018-03-18T10:47:21.548Z,71.38
2018-03-18T10:49:52.555Z,71.21
2018-03-18T10:52:23.540Z,70.97
2018-03-18T10:54:54.562Z,71.30
2018-03-18T10:57:25.547Z,71.54
2018-03-18T10:59:56.629Z,71.46
2018-03-18T11:02:27.642Z,71.34
2018-03-18T11:04:58.673Z,71.55
2018-03-18T11:07:29.643Z,70.75
2018-03-18T11:10:00.643Z,70.29
2018-03-18T11:12:31.631Z,70.10
2018-03-18T11:15:02.693Z,70.13
2018-03-18T11:17:33.716Z,70.89
2018-03-18T11:20:05.184Z,70.54
2018-03-18T11:22:36.238Z,70.43
2018-03-18T11:25:07.238Z,70.75
2018-03-18T11:27:38.232Z,70.76
2018-03-18T11:30:09.305Z,71.15
2018-03-18T11:32:40.354Z,70.05
2018-03-18T11:35:11.361Z,69.54
2018-03-18T11:37:42.373Z,69.17
2018-03-18T11:40:13.401Z,69.69
2018-03-18T11:42:44.391Z,68.73
2018-03-18T11:45:15.354Z,68.15
2018-03-18T11:47:46.349Z,66.37
2018-03-18T11:50:17.367Z,66.89
2018-03-18T11:52:48.415Z,66.00
2018-03-18T11:55:19.420Z,64.89
2018-03-18T11:57:50.429Z,63.70
2018-03-18T12:00:21.431Z,63.11
2018-03-18T12:02:52.480Z,62.50
2018-03-18T12:05:23.493Z,61.69
2018-03-18T12:07:54.491Z,59.40
2018-03-18T12:10:25.474Z,59.24
2018-03-18T12:12:56.491Z,57.62
2018-03-18T12:15:27.485Z,56.68
2018-03-18T12:17:59.465Z,55.51
2018-03-18T12:20:30.474Z,56.51
2018-03-18T12:23:01.469Z,58.21
2018-03-18T12:25:32.497Z,57.38
2018-03-18T12:28:03.493Z,59.50
2018-03-18T12:30:34.530Z,61.04
2018-03-18T12:33:05.557Z,60.87
2018-03-18T12:35:36.586Z,59.97
2018-03-18T12:38:07.563Z,58.68
2018-03-18T12:40:38.595Z,58.72
2018-03-18T12:43:21.930Z,58.85
2018-03-18T12:45:52.930Z,59.42
2018-03-18T12:48:23.979Z,60.45
2018-03-18T12:50:55.017Z,61.22
2018-03-18T12:53:26.032Z,62.49
2018-03-18T12:55:57.003Z,61.95
2018-03-18T12:58:28.071Z,61.20
2018-03-18T13:00:59.064Z,59.78
2018-03-18T13:03:30.023Z,58.84
2018-03-18T13:06:01.044Z,58.48
2018-03-18T13:08:32.052Z,57.30
2018-03-18T13:11:03.036Z,56.39
2018-03-18T13:13:33.976Z,54.95
2018-03-18T13:16:05.025Z,55.17
2018-03-18T13:18:36.020Z,53.28
2018-03-18T13:21:06.997Z,52.65
2018-03-18T13:23:38.016Z,53.28
2018-03-18T13:26:08.999Z,54.03
2018-03-18T13:28:40.030Z,54.17
2018-03-18T13:31:11.014Z,53.26
2018-03-18T13:33:42.014Z,53.69
2018-03-18T13:36:13.012Z,51.69
2018-03-18T13:38:43.975Z,51.94
2018-03-18T13:41:14.960Z,52.68
2018-03-18T13:43:45.970Z,52.03
2018-03-18T13:46:16.982Z,54.91
2018-03-18T13:48:47.965Z,55.47
2018-03-18T13:51:18.945Z,57.05
2018-03-18T13:53:49.922Z,57.51
2018-03-18T13:56:20.959Z,56.91
2018-03-18T13:58:51.983Z,59.14
2018-03-18T14:01:22.944Z,59.13
2018-03-18T14:03:53.900Z,58.67
2018-03-18T14:06:24.888Z,58.73
2018-03-18T14:08:55.894Z,60.08
2018-03-18T14:11:26.892Z,58.01
2018-03-18T14:13:57.885Z,59.41
2018-03-18T14:16:28.845Z,60.78
2018-03-18T14:18:59.840Z,58.61
2018-03-18T14:21:30.852Z,59.16
2018-03-18T14:24:01.890Z,59.11
2018-03-18T14:26:32.876Z,59.74
2018-03-18T14:29:03.942Z,59.25
2018-03-18T14:31:35.044Z,61.30
2018-03-18T14:34:05.977Z,60.02
2018-03-18T14:36:36.994Z,61.66
2018-03-18T14:39:08.035Z,62.66
2018-03-18T14:41:39.083Z,62.70
2018-03-18T14:44:10.076Z,63.83
2018-03-18T14:46:41.103Z,63.35
2018-03-18T14:49:12.114Z,62.90
2018-03-18T14:51:43.152Z,63.81
2018-03-18T14:54:14.140Z,62.51
2018-03-18T14:56:45.126Z,62.84
2018-03-18T14:59:16.151Z,62.97
2018-03-18T15:01:47.164Z,62.94
2018-03-18T15:04:18.228Z,62.24
2018-03-18T15:06:49.218Z,63.43
2018-03-18T15:09:20.220Z,66.43
2018-03-18T15:11:58.318Z,64.42
2018-03-18T15:14:29.278Z,63.94
2018-03-18T15:17:00.310Z,64.61
2018-03-18T15:19:31.277Z,62.85
2018-03-18T15:22:02.325Z,64.00
2018-03-18T15:24:33.305Z,64.83
2018-03-18T15:27:04.265Z,61.65
2018-03-18T15:29:35.252Z,65.80
2018-03-18T15:32:06.305Z,65.02
2018-03-18T15:34:37.344Z,66.72
2018-03-18T15:37:08.378Z,65.86
2018-03-18T15:39:39.358Z,66.79
2018-03-18T15:42:10.418Z,66.64
2018-03-18T15:44:41.373Z,63.24
2018-03-18T15:47:12.359Z,66.29
2018-03-18T15:49:43.362Z,65.82
2018-03-18T15:52:14.321Z,67.58
2018-03-18T15:54:45.326Z,66.95
2018-03-18T15:57:16.337Z,66.79
2018-03-18T15:59:47.347Z,66.45
2018-03-18T16:02:18.276Z,67.38
2018-03-18T16:04:49.288Z,67.77
2018-03-18T16:07:20.306Z,63.60
2018-03-18T16:09:51.300Z,66.09
2018-03-18T16:12:22.293Z,67.35
2018-03-18T16:14:53.292Z,67.65
2018-03-18T16:17:24.258Z,65.90
2018-03-18T16:19:55.275Z,65.59
2018-03-18T16:22:26.284Z,65.98
2018-03-18T16:24:57.265Z,66.78
2018-03-18T16:27:28.324Z,65.49
2018-03-18T16:30:11.597Z,66.96
2018-03-18T16:32:42.633Z,67.74
2018-03-18T16:35:13.636Z,67.09
2018-03-18T16:37:44.642Z,66.77
2018-03-18T16:40:15.729Z,65.98
2018-03-18T16:42:46.733Z,67.67
2018-03-18T16:45:17.751Z,66.77
2018-03-18T16:47:48.753Z,65.12
2018-03-18T16:50:19.767Z,66.55
2018-03-18T16:52:50.764Z,65.56
2018-03-18T16:55:21.748Z,66.54
2018-03-18T16:57:52.737Z,62.54
2018-03-18T17:00:23.737Z,65.69
2018-03-18T17:02:54.783Z,65.99
2018-03-18T17:05:25.719Z,68.64
2018-03-18T17:07:56.737Z,67.38
2018-03-18T17:10:27.786Z,66.51
2018-03-18T17:12:58.783Z,65.38
2018-03-18T17:15:29.842Z,67.25
2018-03-18T17:18:00.884Z,63.51
2018-03-18T17:20:31.845Z,64.65
2018-03-18T17:23:02.908Z,64.73
2018-03-18T17:25:33.863Z,66.09
2018-03-18T17:28:04.829Z,69.09
2018-03-18T17:30:35.809Z,65.96
2018-03-18T17:33:06.800Z,67.79
2018-03-18T17:35:37.792Z,68.65
2018-03-18T17:38:08.776Z,66.20
2018-03-18T17:40:39.977Z,68.28
2018-03-18T17:43:11.035Z,68.54
2018-03-18T17:45:54.245Z,67.35
2018-03-18T17:48:37.595Z,66.05
2018-03-18T17:51:20.676Z,66.69
2018-03-18T17:54:03.931Z,66.22
2018-03-18T17:56:35.883Z,65.63
2018-03-18T17:59:06.933Z,67.41
2018-03-18T18:01:38.075Z,67.99
2018-03-18T18:04:09.042Z,68.41
2018-03-18T18:06:40.028Z,67.94
2018-03-18T18:09:11.056Z,67.31
2018-03-18T18:11:42.034Z,66.02
2018-03-18T18:14:13.092Z,65.47
2018-03-18T18:16:44.076Z,66.84
2018-03-18T18:19:15.080Z,65.64
2018-03-18T18:21:46.088Z,67.09
2018-03-18T18:24:17.100Z,65.65
2018-03-18T18:26:48.055Z,66.65
2018-03-18T18:29:19.040Z,69.12
2018-03-18T18:31:50.024Z,68.58
2018-03-18T18:34:21.030Z,68.06
2018-03-18T18:36:52.065Z,65.71
2018-03-18T18:39:23.080Z,66.64
2018-03-18T18:41:54.149Z,69.34
2018-03-18T18:44:25.146Z,67.55
2018-03-18T18:46:56.155Z,65.02
2018-03-18T18:49:27.148Z,66.13
2018-03-18T18:51:58.147Z,66.83
2018-03-18T18:54:29.236Z,66.10
2018-03-18T18:57:00.199Z,66.82
2018-03-18T18:59:31.209Z,64.59
2018-03-18T19:02:02.168Z,65.14
2018-03-18T19:04:33.172Z,65.36
2018-03-18T19:07:04.179Z,64.99
2018-03-18T19:09:35.103Z,65.14
2018-03-18T19:12:06.083Z,63.60
2018-03-18T19:14:37.090Z,64.76
2018-03-18T19:17:08.067Z,65.80
2018-03-18T19:19:39.063Z,66.24
2018-03-18T19:22:10.115Z,66.96
2018-03-18T19:24:41.068Z,64.84
2018-03-18T19:27:12.034Z,64.22
2018-03-18T19:29:42.999Z,65.14
2018-03-18T19:32:14.041Z,67.26
2018-03-18T19:34:45.002Z,64.38
2018-03-18T19:37:16.005Z,66.45
2018-03-18T19:39:47.659Z,65.48
2018-03-18T19:42:18.688Z,66.06
2018-03-18T19:44:49.695Z,66.07
2018-03-18T19:47:20.823Z,65.81
2018-03-18T19:49:51.758Z,63.99
2018-03-18T19:52:22.738Z,64.94
2018-03-18T19:54:53.771Z,62.16
2018-03-18T19:57:24.757Z,63.59
2018-03-18T19:59:55.733Z,61.51
2018-03-18T20:02:26.732Z,64.70
2018-03-18T20:04:57.713Z,62.50
2018-03-18T20:07:28.749Z,63.57
2018-03-18T20:09:59.761Z,63.91
2018-03-18T20:12:30.779Z,65.47
2018-03-18T20:15:01.770Z,64.34
2018-03-18T20:17:32.835Z,64.01
2018-03-18T20:20:03.855Z,62.19
2018-03-18T20:22:34.836Z,62.98
2018-03-18T20:25:05.877Z,67.24
2018-03-18T20:27:36.881Z,65.19
2018-03-18T20:30:07.914Z,64.97
2018-03-18T20:32:39.233Z,66.03
2018-03-18T20:35:10.255Z,63.81
2018-03-18T20:37:41.275Z,64.14
2018-03-18T20:40:12.288Z,65.54
2018-03-18T20:42:43.284Z,64.05
2018-03-18T20:45:14.237Z,62.85
2018-03-18T20:47:45.235Z,63.64
2018-03-18T20:50:16.215Z,65.19
2018-03-18T20:52:47.269Z,64.88
2018-03-18T20:55:18.312Z,66.96
2018-03-18T20:57:49.355Z,65.23
2018-03-18T21:00:20.369Z,66.29
2018-03-18T21:02:51.337Z,64.77
2018-03-18T21:05:22.690Z,63.75
2018-03-18T21:07:53.700Z,64.57
2018-03-18T21:10:24.708Z,65.54
2018-03-18T21:12:55.701Z,66.19
2018-03-18T21:15:26.757Z,64.80
2018-03-18T21:17:57.692Z,66.65
2018-03-18T21:20:28.708Z,66.54
2018-03-18T21:22:59.669Z,65.54
2018-03-18T21:25:30.655Z,65.56
2018-03-18T21:28:01.680Z,66.84
2018-03-18T21:30:32.624Z,63.66
2018-03-18T21:33:03.647Z,64.97
2018-03-18T21:35:34.631Z,65.44
2018-03-18T21:38:05.673Z,64.51
2018-03-18T21:40:36.663Z,66.03
2018-03-18T21:43:07.669Z,66.53
2018-03-18T21:45:38.695Z,65.02
2018-03-18T21:48:09.663Z,66.35
2018-03-18T21:50:40.690Z,66.44
2018-03-18T21:53:11.706Z,68.02
2018-03-18T21:55:42.745Z,65.13
2018-03-18T21:58:13.774Z,63.34
2018-03-18T22:00:44.735Z,66.48
2018-03-18T22:03:15.709Z,66.64
2018-03-18T22:05:46.677Z,65.49
2018-03-18T22:08:17.711Z,65.56
2018-03-18T22:10:48.657Z,65.77
2018-03-18T22:13:19.674Z,64.19
2018-03-18T22:15:50.644Z,67.39
2018-03-18T22:18:21.643Z,65.48
2018-03-18T22:20:52.599Z,63.38
2018-03-18T22:23:23.592Z,64.38
2018-03-18T22:25:54.569Z,65.45
2018-03-18T22:28:25.555Z,66.46
2018-03-18T22:30:56.585Z,63.55
2018-03-18T22:33:27.592Z,65.74
2018-03-18T22:35:58.617Z,64.84
2018-03-18T22:38:29.631Z,65.08
2018-03-18T22:41:00.586Z,64.31
2018-03-18T22:43:31.572Z,63.17
2018-03-18T22:46:02.590Z,63.22
2018-03-18T22:48:33.600Z,64.85
2018-03-18T22:51:04.612Z,65.06
2018-03-18T22:53:35.625Z,63.69
2018-03-18T22:56:06.696Z,64.04
2018-03-18T22:58:37.690Z,64.92
2018-03-18T23:01:08.742Z,64.42
2018-03-18T23:03:39.733Z,64.17
2018-03-18T23:06:10.713Z,65.77
2018-03-18T23:08:41.734Z,65.58
2018-03-18T23:11:12.718Z,64.36
2018-03-18T23:13:43.691Z,64.39
2018-03-18T23:16:14.682Z,63.18
2018-03-18T23:18:45.688Z,63.97
2018-03-18T23:21:16.716Z,63.17
2018-03-18T23:23:47.699Z,62.97
2018-03-18T23:26:18.693Z,63.69
2018-03-18T23:28:50.604Z,61.47
2018-03-18T23:31:21.745Z,64.26
2018-03-18T23:33:55.612Z,66.11
2018-03-18T23:36:26.834Z,63.87
2018-03-18T23:38:57.807Z,64.45
2018-03-18T23:41:28.827Z,63.27
2018-03-18T23:43:59.802Z,64.17
2018-03-18T23:46:30.831Z,63.00
2018-03-18T23:49:01.780Z,65.37
2018-03-18T23:51:32.758Z,63.74
2018-03-18T23:54:03.780Z,64.15
2018-03-18T23:56:34.741Z,62.95
2018-03-18T23:59:05.739Z,63.36
